sensor_id;sensor_type;location;lat;lon;timestamp;P1;durP1;ratioP1;P2;durP2;ratioP2
18520;SDS011;9390;51.244;6.982;2023-05-24T00:01:26;13.60;;;2.80;;
18520;SDS011;9390;51.244;6.982;2023-05-24T00:03:58;12.95;;;3.63;;
18520;SDS011;9390;51.244;6.982;2023-05-24T00:06:30;14.70;;;3.60;;
18520;SDS011;9390;51.244;6.982;2023-05-24T00:09:03;8.77;;;2.70;;
18520;SDS011;9390;51.244;6.982;2023-05-24T00:11:35;16.17;;;3.20;;
18520;SDS011;9390;51.244;6.982;2023-05-24T00:14:06;15.52;;;3.38;;
18520;SDS011;9390;51.244;6.982;2023-05-24T00:16:37;11.30;;;3.20;;
18520;SDS011;9390;51.244;6.982;2023-05-24T00:19:09;12.07;;;3.20;;
18520;SDS011;9390;51.244;6.982;2023-05-24T00:21:42;12.15;;;3.15;;
18520;SDS011;9390;51.244;6.982;2023-05-24T00:24:13;11.25;;;3.00;;
18520;SDS011;9390;51.244;6.982;2023-05-24T00:26:46;14.82;;;2.88;;
18520;SDS011;9390;51.244;6.982;2023-05-24T00:29:17;16.50;;;3.08;;
18520;SDS011;9390;51.244;6.982;2023-05-24T00:31:48;16.33;;;3.72;;
18520;SDS011;9390;51.244;6.982;2023-05-24T00:34:20;16.45;;;3.63;;
18520;SDS011;9390;51.244;6.982;2023-05-24T00:36:52;14.57;;;3.10;;
18520;SDS011;9390;51.244;6.982;2023-05-24T00:39:26;11.82;;;3.97;;
18520;SDS011;9390;51.244;6.982;2023-05-24T00:41:57;8.95;;;2.65;;
18520;SDS011;9390;51.244;6.982;2023-05-24T00:44:28;9.40;;;2.90;;
18520;SDS011;9390;51.244;6.982;2023-05-24T00:47:00;12.18;;;3.40;;
18520;SDS011;9390;51.244;6.982;2023-05-24T00:49:31;9.43;;;2.90;;
18520;SDS011;9390;51.244;6.982;2023-05-24T00:52:04;13.00;;;2.90;;
18520;SDS011;9390;51.244;6.982;2023-05-24T00:54:37;11.43;;;2.58;;
18520;SDS011;9390;51.244;6.982;2023-05-24T00:57:10;14.63;;;3.53;;
18520;SDS011;9390;51.244;6.982;2023-05-24T00:59:42;14.32;;;3.03;;
18520;SDS011;9390;51.244;6.982;2023-05-24T01:02:14;14.30;;;3.58;;
18520;SDS011;9390;51.244;6.982;2023-05-24T01:04:47;10.43;;;3.28;;
18520;SDS011;9390;51.244;6.982;2023-05-24T01:07:23;19.23;;;3.10;;
18520;SDS011;9390;51.244;6.982;2023-05-24T01:10:00;12.23;;;3.55;;
18520;SDS011;9390;51.244;6.982;2023-05-24T01:12:35;13.93;;;3.90;;
18520;SDS011;9390;51.244;6.982;2023-05-24T01:15:16;10.57;;;2.72;;
18520;SDS011;9390;51.244;6.982;2023-05-24T01:17:53;11.00;;;3.65;;
18520;SDS011;9390;51.244;6.982;2023-05-24T01:20:31;17.50;;;3.88;;
18520;SDS011;9390;51.244;6.982;2023-05-24T01:23:12;8.88;;;3.53;;
18520;SDS011;9390;51.244;6.982;2023-05-24T01:25:48;13.07;;;3.67;;
18520;SDS011;9390;51.244;6.982;2023-05-24T01:28:25;14.90;;;3.08;;
18520;SDS011;9390;51.244;6.982;2023-05-24T01:33:28;10.63;;;2.80;;
18520;SDS011;9390;51.244;6.982;2023-05-24T01:36:00;9.90;;;3.15;;
18520;SDS011;9390;51.244;6.982;2023-05-24T01:38:31;15.77;;;3.63;;
18520;SDS011;9390;51.244;6.982;2023-05-24T01:41:04;13.23;;;3.22;;
18520;SDS011;9390;51.244;6.982;2023-05-24T01:43:42;13.13;;;2.97;;
18520;SDS011;9390;51.244;6.982;2023-05-24T01:46:21;13.73;;;3.47;;
18520;SDS011;9390;51.244;6.982;2023-05-24T01:48:58;10.90;;;3.30;;
18520;SDS011;9390;51.244;6.982;2023-05-24T01:51:37;16.52;;;3.60;;
18520;SDS011;9390;51.244;6.982;2023-05-24T01:54:10;15.50;;;4.05;;
18520;SDS011;9390;51.244;6.982;2023-05-24T01:56:42;9.70;;;3.13;;
18520;SDS011;9390;51.244;6.982;2023-05-24T01:59:16;17.88;;;3.95;;
18520;SDS011;9390;51.244;6.982;2023-05-24T02:01:48;12.52;;;3.35;;
18520;SDS011;9390;51.244;6.982;2023-05-24T02:04:19;13.48;;;4.32;;
18520;SDS011;9390;51.244;6.982;2023-05-24T02:06:51;16.48;;;3.58;;
18520;SDS011;9390;51.244;6.982;2023-05-24T02:09:22;12.32;;;3.50;;
18520;SDS011;9390;51.244;6.982;2023-05-24T02:11:54;13.93;;;3.65;;
18520;SDS011;9390;51.244;6.982;2023-05-24T02:14:26;17.15;;;3.97;;
18520;SDS011;9390;51.244;6.982;2023-05-24T02:16:58;12.55;;;3.25;;
18520;SDS011;9390;51.244;6.982;2023-05-24T02:19:31;14.80;;;3.63;;
18520;SDS011;9390;51.244;6.982;2023-05-24T02:22:03;12.07;;;4.22;;
18520;SDS011;9390;51.244;6.982;2023-05-24T02:24:36;18.30;;;3.85;;
18520;SDS011;9390;51.244;6.982;2023-05-24T02:27:09;18.38;;;3.78;;
18520;SDS011;9390;51.244;6.982;2023-05-24T02:29:42;15.77;;;3.80;;
18520;SDS011;9390;51.244;6.982;2023-05-24T02:32:13;11.82;;;3.75;;
18520;SDS011;9390;51.244;6.982;2023-05-24T02:34:44;13.57;;;3.67;;
18520;SDS011;9390;51.244;6.982;2023-05-24T02:37:16;12.15;;;3.90;;
18520;SDS011;9390;51.244;6.982;2023-05-24T02:39:47;13.23;;;3.28;;
18520;SDS011;9390;51.244;6.982;2023-05-24T02:42:19;12.48;;;3.45;;
18520;SDS011;9390;51.244;6.982;2023-05-24T02:44:51;17.45;;;3.70;;
18520;SDS011;9390;51.244;6.982;2023-05-24T02:47:23;10.40;;;2.95;;
18520;SDS011;9390;51.244;6.982;2023-05-24T02:49:55;10.82;;;4.18;;
18520;SDS011;9390;51.244;6.982;2023-05-24T02:52:27;19.02;;;4.35;;
18520;SDS011;9390;51.244;6.982;2023-05-24T02:54:58;17.27;;;3.63;;
18520;SDS011;9390;51.244;6.982;2023-05-24T02:57:29;24.85;;;4.25;;
18520;SDS011;9390;51.244;6.982;2023-05-24T03:00:04;11.88;;;3.92;;
18520;SDS011;9390;51.244;6.982;2023-05-24T03:02:38;16.92;;;4.78;;
18520;SDS011;9390;51.244;6.982;2023-05-24T03:05:09;14.30;;;3.80;;
18520;SDS011;9390;51.244;6.982;2023-05-24T03:07:41;12.45;;;3.55;;
18520;SDS011;9390;51.244;6.982;2023-05-24T03:10:12;12.20;;;3.75;;
18520;SDS011;9390;51.244;6.982;2023-05-24T03:12:44;19.77;;;4.43;;
18520;SDS011;9390;51.244;6.982;2023-05-24T03:15:16;16.55;;;3.83;;
18520;SDS011;9390;51.244;6.982;2023-05-24T03:17:48;18.63;;;4.78;;
18520;SDS011;9390;51.244;6.982;2023-05-24T03:20:19;11.30;;;3.88;;
18520;SDS011;9390;51.244;6.982;2023-05-24T03:22:52;23.98;;;4.47;;
18520;SDS011;9390;51.244;6.982;2023-05-24T03:25:23;15.88;;;4.45;;
18520;SDS011;9390;51.244;6.982;2023-05-24T03:27:56;15.95;;;3.85;;
18520;SDS011;9390;51.244;6.982;2023-05-24T03:30:29;21.40;;;3.95;;
18520;SDS011;9390;51.244;6.982;2023-05-24T03:33:00;17.88;;;4.47;;
18520;SDS011;9390;51.244;6.982;2023-05-24T03:35:31;21.58;;;4.60;;
18520;SDS011;9390;51.244;6.982;2023-05-24T03:38:03;13.35;;;3.63;;
18520;SDS011;9390;51.244;6.982;2023-05-24T03:40:34;15.52;;;4.30;;
18520;SDS011;9390;51.244;6.982;2023-05-24T03:43:06;15.13;;;4.32;;
18520;SDS011;9390;51.244;6.982;2023-05-24T03:45:38;15.27;;;3.97;;
18520;SDS011;9390;51.244;6.982;2023-05-24T03:48:10;15.52;;;4.25;;
18520;SDS011;9390;51.244;6.982;2023-05-24T03:50:41;18.75;;;5.32;;
18520;SDS011;9390;51.244;6.982;2023-05-24T03:53:13;18.42;;;4.68;;
18520;SDS011;9390;51.244;6.982;2023-05-24T03:55:45;10.93;;;4.43;;
18520;SDS011;9390;51.244;6.982;2023-05-24T03:58:16;16.05;;;4.47;;
18520;SDS011;9390;51.244;6.982;2023-05-24T04:00:49;13.70;;;3.70;;
18520;SDS011;9390;51.244;6.982;2023-05-24T04:03:20;24.38;;;5.93;;
18520;SDS011;9390;51.244;6.982;2023-05-24T04:05:52;12.43;;;3.47;;
18520;SDS011;9390;51.244;6.982;2023-05-24T04:08:23;16.85;;;4.97;;
18520;SDS011;9390;51.244;6.982;2023-05-24T04:10:55;14.98;;;4.25;;
18520;SDS011;9390;51.244;6.982;2023-05-24T04:13:26;19.88;;;4.45;;
18520;SDS011;9390;51.244;6.982;2023-05-24T04:15:59;20.50;;;3.65;;
18520;SDS011;9390;51.244;6.982;2023-05-24T04:18:30;11.98;;;4.15;;
18520;SDS011;9390;51.244;6.982;2023-05-24T04:21:02;17.25;;;5.03;;
18520;SDS011;9390;51.244;6.982;2023-05-24T04:23:33;17.95;;;4.20;;
18520;SDS011;9390;51.244;6.982;2023-05-24T04:26:05;14.07;;;4.05;;
18520;SDS011;9390;51.244;6.982;2023-05-24T04:28:39;19.23;;;4.50;;
18520;SDS011;9390;51.244;6.982;2023-05-24T04:31:12;14.07;;;4.95;;
18520;SDS011;9390;51.244;6.982;2023-05-24T04:33:45;21.75;;;4.43;;
18520;SDS011;9390;51.244;6.982;2023-05-24T04:36:17;12.90;;;4.40;;
18520;SDS011;9390;51.244;6.982;2023-05-24T04:38:48;16.05;;;6.35;;
18520;SDS011;9390;51.244;6.982;2023-05-24T04:41:22;15.95;;;4.22;;
18520;SDS011;9390;51.244;6.982;2023-05-24T04:43:53;16.55;;;4.35;;
18520;SDS011;9390;51.244;6.982;2023-05-24T04:46:26;16.05;;;4.00;;
18520;SDS011;9390;51.244;6.982;2023-05-24T04:48:58;15.77;;;4.30;;
18520;SDS011;9390;51.244;6.982;2023-05-24T04:51:31;24.42;;;4.80;;
18520;SDS011;9390;51.244;6.982;2023-05-24T04:54:02;17.05;;;4.40;;
18520;SDS011;9390;51.244;6.982;2023-05-24T04:56:37;16.25;;;4.13;;
18520;SDS011;9390;51.244;6.982;2023-05-24T04:59:09;21.73;;;4.53;;
18520;SDS011;9390;51.244;6.982;2023-05-24T05:01:42;15.93;;;4.47;;
18520;SDS011;9390;51.244;6.982;2023-05-24T05:04:13;16.58;;;4.18;;
18520;SDS011;9390;51.244;6.982;2023-05-24T05:06:44;22.15;;;4.90;;
18520;SDS011;9390;51.244;6.982;2023-05-24T05:09:17;31.08;;;5.50;;
18520;SDS011;9390;51.244;6.982;2023-05-24T05:11:48;26.80;;;5.40;;
18520;SDS011;9390;51.244;6.982;2023-05-24T05:14:20;21.80;;;4.88;;
18520;SDS011;9390;51.244;6.982;2023-05-24T05:16:53;25.00;;;5.60;;
18520;SDS011;9390;51.244;6.982;2023-05-24T05:19:24;24.52;;;5.60;;
18520;SDS011;9390;51.244;6.982;2023-05-24T05:21:55;25.35;;;4.50;;
18520;SDS011;9390;51.244;6.982;2023-05-24T05:24:27;21.50;;;4.35;;
18520;SDS011;9390;51.244;6.982;2023-05-24T05:26:58;19.75;;;4.97;;
18520;SDS011;9390;51.244;6.982;2023-05-24T05:29:30;22.02;;;5.47;;
18520;SDS011;9390;51.244;6.982;2023-05-24T05:32:03;20.52;;;6.13;;
18520;SDS011;9390;51.244;6.982;2023-05-24T05:34:35;16.27;;;4.75;;
18520;SDS011;9390;51.244;6.982;2023-05-24T05:37:06;18.25;;;5.72;;
18520;SDS011;9390;51.244;6.982;2023-05-24T05:39:37;18.95;;;5.68;;
18520;SDS011;9390;51.244;6.982;2023-05-24T05:42:09;26.30;;;5.20;;
18520;SDS011;9390;51.244;6.982;2023-05-24T05:44:41;21.98;;;5.60;;
18520;SDS011;9390;51.244;6.982;2023-05-24T05:47:14;20.73;;;5.50;;
18520;SDS011;9390;51.244;6.982;2023-05-24T05:49:45;23.70;;;5.30;;
18520;SDS011;9390;51.244;6.982;2023-05-24T05:52:17;25.02;;;6.35;;
18520;SDS011;9390;51.244;6.982;2023-05-24T05:54:48;20.88;;;5.85;;
18520;SDS011;9390;51.244;6.982;2023-05-24T05:57:19;16.98;;;4.90;;
18520;SDS011;9390;51.244;6.982;2023-05-24T06:02:25;19.05;;;5.32;;
18520;SDS011;9390;51.244;6.982;2023-05-24T06:04:57;22.25;;;5.78;;
18520;SDS011;9390;51.244;6.982;2023-05-24T06:07:28;26.73;;;5.78;;
18520;SDS011;9390;51.244;6.982;2023-05-24T06:10:00;19.23;;;5.45;;
18520;SDS011;9390;51.244;6.982;2023-05-24T06:12:32;26.08;;;5.68;;
18520;SDS011;9390;51.244;6.982;2023-05-24T06:15:04;20.88;;;4.90;;
18520;SDS011;9390;51.244;6.982;2023-05-24T06:17:37;23.65;;;5.63;;
18520;SDS011;9390;51.244;6.982;2023-05-24T06:20:09;19.83;;;5.00;;
18520;SDS011;9390;51.244;6.982;2023-05-24T06:22:44;19.42;;;5.65;;
18520;SDS011;9390;51.244;6.982;2023-05-24T06:25:18;20.27;;;5.70;;
18520;SDS011;9390;51.244;6.982;2023-05-24T06:27:51;23.90;;;5.38;;
18520;SDS011;9390;51.244;6.982;2023-05-24T06:30:23;20.40;;;5.20;;
18520;SDS011;9390;51.244;6.982;2023-05-24T06:32:56;21.00;;;5.60;;
18520;SDS011;9390;51.244;6.982;2023-05-24T06:35:28;19.83;;;3.75;;
18520;SDS011;9390;51.244;6.982;2023-05-24T06:37:59;18.88;;;4.40;;
18520;SDS011;9390;51.244;6.982;2023-05-24T06:40:30;20.63;;;4.32;;
18520;SDS011;9390;51.244;6.982;2023-05-24T06:43:02;16.30;;;4.65;;
18520;SDS011;9390;51.244;6.982;2023-05-24T06:45:34;21.45;;;4.55;;
18520;SDS011;9390;51.244;6.982;2023-05-24T06:48:07;15.85;;;4.53;;
18520;SDS011;9390;51.244;6.982;2023-05-24T06:50:39;21.73;;;4.40;;
18520;SDS011;9390;51.244;6.982;2023-05-24T06:53:11;18.63;;;4.40;;
18520;SDS011;9390;51.244;6.982;2023-05-24T06:55:42;18.88;;;4.40;;
18520;SDS011;9390;51.244;6.982;2023-05-24T06:58:14;15.35;;;3.67;;
18520;SDS011;9390;51.244;6.982;2023-05-24T07:00:46;29.43;;;6.00;;
18520;SDS011;9390;51.244;6.982;2023-05-24T07:03:20;16.75;;;4.85;;
18520;SDS011;9390;51.244;6.982;2023-05-24T07:05:52;26.98;;;4.70;;
18520;SDS011;9390;51.244;6.982;2023-05-24T07:08:23;14.90;;;3.88;;
18520;SDS011;9390;51.244;6.982;2023-05-24T07:10:55;23.50;;;5.10;;
18520;SDS011;9390;51.244;6.982;2023-05-24T07:13:26;20.70;;;3.90;;
18520;SDS011;9390;51.244;6.982;2023-05-24T07:15:58;17.30;;;3.97;;
18520;SDS011;9390;51.244;6.982;2023-05-24T07:18:30;21.13;;;4.82;;
18520;SDS011;9390;51.244;6.982;2023-05-24T07:21:02;22.08;;;4.63;;
18520;SDS011;9390;51.244;6.982;2023-05-24T07:23:33;24.73;;;5.38;;
18520;SDS011;9390;51.244;6.982;2023-05-24T07:26:05;20.50;;;4.30;;
18520;SDS011;9390;51.244;6.982;2023-05-24T07:28:38;17.20;;;3.92;;
18520;SDS011;9390;51.244;6.982;2023-05-24T07:31:10;19.55;;;5.25;;
18520;SDS011;9390;51.244;6.982;2023-05-24T07:33:43;26.17;;;4.72;;
18520;SDS011;9390;51.244;6.982;2023-05-24T07:36:15;22.05;;;4.43;;
18520;SDS011;9390;51.244;6.982;2023-05-24T07:38:46;18.05;;;4.32;;
18520;SDS011;9390;51.244;6.982;2023-05-24T07:41:17;17.25;;;3.63;;
18520;SDS011;9390;51.244;6.982;2023-05-24T07:43:49;16.60;;;3.70;;
18520;SDS011;9390;51.244;6.982;2023-05-24T07:46:21;18.88;;;3.83;;
18520;SDS011;9390;51.244;6.982;2023-05-24T07:48:54;15.18;;;3.60;;
18520;SDS011;9390;51.244;6.982;2023-05-24T07:51:25;19.85;;;4.13;;
18520;SDS011;9390;51.244;6.982;2023-05-24T07:53:57;15.07;;;4.85;;
18520;SDS011;9390;51.244;6.982;2023-05-24T07:56:28;12.88;;;3.10;;
18520;SDS011;9390;51.244;6.982;2023-05-24T07:59:00;14.35;;;3.50;;
18520;SDS011;9390;51.244;6.982;2023-05-24T08:01:33;23.77;;;4.90;;
18520;SDS011;9390;51.244;6.982;2023-05-24T08:04:07;17.30;;;3.17;;
18520;SDS011;9390;51.244;6.982;2023-05-24T08:06:39;18.70;;;4.57;;
18520;SDS011;9390;51.244;6.982;2023-05-24T08:09:10;11.63;;;3.17;;
18520;SDS011;9390;51.244;6.982;2023-05-24T08:11:42;18.48;;;3.15;;
18520;SDS011;9390;51.244;6.982;2023-05-24T08:14:13;21.08;;;3.92;;
18520;SDS011;9390;51.244;6.982;2023-05-24T08:16:44;21.25;;;4.90;;
18520;SDS011;9390;51.244;6.982;2023-05-24T08:19:20;21.20;;;3.67;;
18520;SDS011;9390;51.244;6.982;2023-05-24T08:21:52;14.70;;;3.15;;
18520;SDS011;9390;51.244;6.982;2023-05-24T08:24:25;11.88;;;2.70;;
18520;SDS011;9390;51.244;6.982;2023-05-24T08:26:57;12.48;;;2.60;;
18520;SDS011;9390;51.244;6.982;2023-05-24T08:29:29;11.27;;;2.95;;
18520;SDS011;9390;51.244;6.982;2023-05-24T08:32:00;15.70;;;3.70;;
18520;SDS011;9390;51.244;6.982;2023-05-24T08:34:33;12.70;;;3.05;;
18520;SDS011;9390;51.244;6.982;2023-05-24T08:37:05;14.57;;;3.08;;
18520;SDS011;9390;51.244;6.982;2023-05-24T08:39:38;12.60;;;3.13;;
18520;SDS011;9390;51.244;6.982;2023-05-24T08:42:09;17.38;;;3.88;;
18520;SDS011;9390;51.244;6.982;2023-05-24T08:44:51;15.43;;;3.08;;
18520;SDS011;9390;51.244;6.982;2023-05-24T08:47:23;13.02;;;2.95;;
18520;SDS011;9390;51.244;6.982;2023-05-24T08:49:56;22.45;;;3.88;;
18520;SDS011;9390;51.244;6.982;2023-05-24T08:55:00;20.70;;;3.88;;
18520;SDS011;9390;51.244;6.982;2023-05-24T08:57:31;12.50;;;3.17;;
18520;SDS011;9390;51.244;6.982;2023-05-24T09:00:04;13.70;;;3.17;;
18520;SDS011;9390;51.244;6.982;2023-05-24T09:02:38;13.60;;;3.05;;
18520;SDS011;9390;51.244;6.982;2023-05-24T09:05:12;17.77;;;3.58;;
18520;SDS011;9390;51.244;6.982;2023-05-24T09:07:46;20.60;;;3.20;;
18520;SDS011;9390;51.244;6.982;2023-05-24T09:10:19;14.98;;;3.20;;
18520;SDS011;9390;51.244;6.982;2023-05-24T09:15:25;20.80;;;3.53;;
18520;SDS011;9390;51.244;6.982;2023-05-24T09:17:56;16.35;;;3.60;;
18520;SDS011;9390;51.244;6.982;2023-05-24T09:20:29;20.60;;;3.92;;
18520;SDS011;9390;51.244;6.982;2023-05-24T09:23:01;17.55;;;3.85;;
18520;SDS011;9390;51.244;6.982;2023-05-24T09:25:33;14.55;;;3.03;;
18520;SDS011;9390;51.244;6.982;2023-05-24T09:28:05;11.57;;;2.78;;
18520;SDS011;9390;51.244;6.982;2023-05-24T09:30:37;14.27;;;3.17;;
18520;SDS011;9390;51.244;6.982;2023-05-24T09:33:08;14.88;;;2.92;;
18520;SDS011;9390;51.244;6.982;2023-05-24T09:35:42;12.93;;;2.78;;
18520;SDS011;9390;51.244;6.982;2023-05-24T09:38:15;14.48;;;2.97;;
18520;SDS011;9390;51.244;6.982;2023-05-24T09:43:30;15.82;;;2.95;;
18520;SDS011;9390;51.244;6.982;2023-05-24T09:46:03;18.60;;;3.67;;
18520;SDS011;9390;51.244;6.982;2023-05-24T09:48:35;19.35;;;3.45;;
18520;SDS011;9390;51.244;6.982;2023-05-24T09:51:07;14.63;;;2.70;;
18520;SDS011;9390;51.244;6.982;2023-05-24T09:53:40;12.30;;;2.78;;
18520;SDS011;9390;51.244;6.982;2023-05-24T09:56:15;16.10;;;2.90;;
18520;SDS011;9390;51.244;6.982;2023-05-24T09:58:47;8.45;;;2.50;;
18520;SDS011;9390;51.244;6.982;2023-05-24T10:01:19;21.40;;;4.57;;
18520;SDS011;9390;51.244;6.982;2023-05-24T10:03:53;13.05;;;2.83;;
18520;SDS011;9390;51.244;6.982;2023-05-24T10:06:27;12.13;;;3.22;;
18520;SDS011;9390;51.244;6.982;2023-05-24T10:09:01;14.60;;;3.17;;
18520;SDS011;9390;51.244;6.982;2023-05-24T10:11:35;9.25;;;3.05;;
18520;SDS011;9390;51.244;6.982;2023-05-24T10:14:08;10.60;;;2.65;;
18520;SDS011;9390;51.244;6.982;2023-05-24T10:16:39;14.82;;;4.15;;
18520;SDS011;9390;51.244;6.982;2023-05-24T10:19:11;16.50;;;3.10;;
18520;SDS011;9390;51.244;6.982;2023-05-24T10:21:44;14.85;;;3.30;;
18520;SDS011;9390;51.244;6.982;2023-05-24T10:24:16;12.32;;;3.47;;
18520;SDS011;9390;51.244;6.982;2023-05-24T10:26:49;8.10;;;3.00;;
18520;SDS011;9390;51.244;6.982;2023-05-24T10:29:23;18.17;;;3.13;;
18520;SDS011;9390;51.244;6.982;2023-05-24T10:31:58;15.43;;;2.67;;
18520;SDS011;9390;51.244;6.982;2023-05-24T10:34:29;8.95;;;2.67;;
18520;SDS011;9390;51.244;6.982;2023-05-24T10:37:02;13.90;;;2.83;;
18520;SDS011;9390;51.244;6.982;2023-05-24T10:39:35;15.07;;;3.10;;
18520;SDS011;9390;51.244;6.982;2023-05-24T10:42:06;16.10;;;3.78;;
18520;SDS011;9390;51.244;6.982;2023-05-24T10:44:37;9.00;;;2.95;;
18520;SDS011;9390;51.244;6.982;2023-05-24T10:47:09;13.48;;;3.22;;
18520;SDS011;9390;51.244;6.982;2023-05-24T10:49:46;16.00;;;3.15;;
18520;SDS011;9390;51.244;6.982;2023-05-24T10:52:21;13.15;;;3.03;;
18520;SDS011;9390;51.244;6.982;2023-05-24T10:55:04;16.77;;;3.45;;
18520;SDS011;9390;51.244;6.982;2023-05-24T10:57:37;13.02;;;3.00;;
18520;SDS011;9390;51.244;6.982;2023-05-24T11:00:24;16.00;;;3.42;;
18520;SDS011;9390;51.244;6.982;2023-05-24T11:03:00;13.82;;;2.65;;
18520;SDS011;9390;51.244;6.982;2023-05-24T11:05:34;16.17;;;3.35;;
18520;SDS011;9390;51.244;6.982;2023-05-24T11:08:07;17.35;;;3.63;;
18520;SDS011;9390;51.244;6.982;2023-05-24T11:10:40;11.65;;;3.22;;
18520;SDS011;9390;51.244;6.982;2023-05-24T11:13:11;20.08;;;3.80;;
18520;SDS011;9390;51.244;6.982;2023-05-24T11:15:48;13.10;;;2.97;;
18520;SDS011;9390;51.244;6.982;2023-05-24T11:18:21;13.07;;;3.58;;
18520;SDS011;9390;51.244;6.982;2023-05-24T11:20:54;14.80;;;3.20;;
18520;SDS011;9390;51.244;6.982;2023-05-24T11:23:27;11.55;;;3.03;;
18520;SDS011;9390;51.244;6.982;2023-05-24T11:25:59;17.33;;;3.53;;
18520;SDS011;9390;51.244;6.982;2023-05-24T11:28:35;16.52;;;3.00;;
18520;SDS011;9390;51.244;6.982;2023-05-24T11:31:07;16.80;;;4.05;;
18520;SDS011;9390;51.244;6.982;2023-05-24T11:33:39;15.20;;;4.13;;
18520;SDS011;9390;51.244;6.982;2023-05-24T11:38:46;14.05;;;3.85;;
18520;SDS011;9390;51.244;6.982;2023-05-24T11:41:18;9.23;;;3.25;;
18520;SDS011;9390;51.244;6.982;2023-05-24T11:43:50;24.27;;;5.13;;
18520;SDS011;9390;51.244;6.982;2023-05-24T11:46:21;20.67;;;4.60;;
18520;SDS011;9390;51.244;6.982;2023-05-24T11:48:54;18.00;;;4.22;;
18520;SDS011;9390;51.244;6.982;2023-05-24T11:51:27;13.63;;;3.13;;
18520;SDS011;9390;51.244;6.982;2023-05-24T11:54:01;20.60;;;4.28;;
18520;SDS011;9390;51.244;6.982;2023-05-24T11:56:33;13.73;;;3.78;;
18520;SDS011;9390;51.244;6.982;2023-05-24T11:59:07;20.90;;;4.20;;
18520;SDS011;9390;51.244;6.982;2023-05-24T12:01:40;17.17;;;3.83;;
18520;SDS011;9390;51.244;6.982;2023-05-24T12:04:11;15.00;;;3.13;;
18520;SDS011;9390;51.244;6.982;2023-05-24T12:06:43;14.25;;;3.53;;
18520;SDS011;9390;51.244;6.982;2023-05-24T12:09:17;11.05;;;3.15;;
18520;SDS011;9390;51.244;6.982;2023-05-24T12:11:49;14.50;;;3.42;;
18520;SDS011;9390;51.244;6.982;2023-05-24T12:14:22;14.20;;;3.88;;
18520;SDS011;9390;51.244;6.982;2023-05-24T12:16:56;12.18;;;3.92;;
18520;SDS011;9390;51.244;6.982;2023-05-24T12:19:29;12.43;;;3.10;;
18520;SDS011;9390;51.244;6.982;2023-05-24T12:22:03;15.80;;;4.03;;
18520;SDS011;9390;51.244;6.982;2023-05-24T12:24:38;15.02;;;3.28;;
18520;SDS011;9390;51.244;6.982;2023-05-24T12:27:10;18.10;;;4.25;;
18520;SDS011;9390;51.244;6.982;2023-05-24T12:29:42;16.77;;;3.80;;
18520;SDS011;9390;51.244;6.982;2023-05-24T12:32:15;15.38;;;4.05;;
18520;SDS011;9390;51.244;6.982;2023-05-24T12:34:48;12.40;;;3.30;;
18520;SDS011;9390;51.244;6.982;2023-05-24T12:37:20;14.23;;;4.07;;
18520;SDS011;9390;51.244;6.982;2023-05-24T12:39:53;14.85;;;3.72;;
18520;SDS011;9390;51.244;6.982;2023-05-24T12:42:25;14.10;;;4.40;;
18520;SDS011;9390;51.244;6.982;2023-05-24T12:44:57;16.10;;;4.20;;
18520;SDS011;9390;51.244;6.982;2023-05-24T12:47:28;16.00;;;3.95;;
18520;SDS011;9390;51.244;6.982;2023-05-24T12:50:00;12.23;;;3.55;;
18520;SDS011;9390;51.244;6.982;2023-05-24T12:52:32;11.57;;;3.00;;
18520;SDS011;9390;51.244;6.982;2023-05-24T12:55:05;13.75;;;4.00;;
18520;SDS011;9390;51.244;6.982;2023-05-24T12:57:38;17.02;;;3.65;;
18520;SDS011;9390;51.244;6.982;2023-05-24T13:00:11;21.90;;;4.22;;
18520;SDS011;9390;51.244;6.982;2023-05-24T13:02:43;15.80;;;3.90;;
18520;SDS011;9390;51.244;6.982;2023-05-24T13:05:15;11.43;;;3.50;;
18520;SDS011;9390;51.244;6.982;2023-05-24T13:07:48;13.90;;;3.63;;
18520;SDS011;9390;51.244;6.982;2023-05-24T13:10:21;18.58;;;3.78;;
18520;SDS011;9390;51.244;6.982;2023-05-24T13:12:53;13.20;;;3.90;;
18520;SDS011;9390;51.244;6.982;2023-05-24T13:15:25;14.75;;;3.80;;
18520;SDS011;9390;51.244;6.982;2023-05-24T13:17:57;15.65;;;3.88;;
18520;SDS011;9390;51.244;6.982;2023-05-24T13:20:28;13.50;;;3.85;;
18520;SDS011;9390;51.244;6.982;2023-05-24T13:23:00;19.63;;;4.15;;
18520;SDS011;9390;51.244;6.982;2023-05-24T13:25:33;14.35;;;4.25;;
18520;SDS011;9390;51.244;6.982;2023-05-24T13:30:36;16.17;;;4.20;;
18520;SDS011;9390;51.244;6.982;2023-05-24T13:33:08;16.90;;;4.70;;
18520;SDS011;9390;51.244;6.982;2023-05-24T13:35:40;17.70;;;3.75;;
18520;SDS011;9390;51.244;6.982;2023-05-24T13:38:12;14.25;;;3.92;;
18520;SDS011;9390;51.244;6.982;2023-05-24T13:40:45;11.98;;;4.05;;
18520;SDS011;9390;51.244;6.982;2023-05-24T13:43:17;13.43;;;4.40;;
18520;SDS011;9390;51.244;6.982;2023-05-24T13:45:49;12.68;;;4.50;;
18520;SDS011;9390;51.244;6.982;2023-05-24T13:48:20;13.15;;;4.60;;
18520;SDS011;9390;51.244;6.982;2023-05-24T13:50:53;12.30;;;4.13;;
18520;SDS011;9390;51.244;6.982;2023-05-24T13:53:25;15.05;;;4.50;;
18520;SDS011;9390;51.244;6.982;2023-05-24T13:55:59;12.90;;;4.63;;
18520;SDS011;9390;51.244;6.982;2023-05-24T13:58:31;12.32;;;4.47;;
18520;SDS011;9390;51.244;6.982;2023-05-24T14:01:03;16.60;;;4.20;;
18520;SDS011;9390;51.244;6.982;2023-05-24T14:03:35;13.43;;;4.45;;
18520;SDS011;9390;51.244;6.982;2023-05-24T14:06:09;15.80;;;4.43;;
18520;SDS011;9390;51.244;6.982;2023-05-24T14:08:41;21.23;;;5.63;;
18520;SDS011;9390;51.244;6.982;2023-05-24T14:11:14;17.20;;;4.75;;
18520;SDS011;9390;51.244;6.982;2023-05-24T14:13:46;16.13;;;4.35;;
18520;SDS011;9390;51.244;6.982;2023-05-24T14:16:18;12.93;;;4.40;;
18520;SDS011;9390;51.244;6.982;2023-05-24T14:18:50;19.90;;;5.32;;
18520;SDS011;9390;51.244;6.982;2023-05-24T14:21:22;14.15;;;5.35;;
18520;SDS011;9390;51.244;6.982;2023-05-24T14:23:55;16.88;;;5.45;;
18520;SDS011;9390;51.244;6.982;2023-05-24T14:26:28;18.83;;;5.47;;
18520;SDS011;9390;51.244;6.982;2023-05-24T14:29:01;18.25;;;5.68;;
18520;SDS011;9390;51.244;6.982;2023-05-24T14:31:33;16.80;;;5.07;;
18520;SDS011;9390;51.244;6.982;2023-05-24T14:34:11;27.63;;;6.22;;
18520;SDS011;9390;51.244;6.982;2023-05-24T14:36:43;16.75;;;6.22;;
18520;SDS011;9390;51.244;6.982;2023-05-24T14:39:15;18.50;;;6.18;;
18520;SDS011;9390;51.244;6.982;2023-05-24T14:41:48;20.42;;;5.43;;
18520;SDS011;9390;51.244;6.982;2023-05-24T14:44:20;15.80;;;5.10;;
18520;SDS011;9390;51.244;6.982;2023-05-24T14:46:52;20.10;;;5.45;;
18520;SDS011;9390;51.244;6.982;2023-05-24T14:49:24;16.35;;;5.10;;
18520;SDS011;9390;51.244;6.982;2023-05-24T14:51:56;17.00;;;5.20;;
18520;SDS011;9390;51.244;6.982;2023-05-24T14:54:27;15.55;;;4.68;;
18520;SDS011;9390;51.244;6.982;2023-05-24T14:57:01;15.40;;;4.57;;
18520;SDS011;9390;51.244;6.982;2023-05-24T14:59:33;17.90;;;4.97;;
18520;SDS011;9390;51.244;6.982;2023-05-24T15:02:05;15.00;;;5.05;;
18520;SDS011;9390;51.244;6.982;2023-05-24T15:04:36;14.03;;;4.53;;
18520;SDS011;9390;51.244;6.982;2023-05-24T15:07:08;16.80;;;4.78;;
18520;SDS011;9390;51.244;6.982;2023-05-24T15:09:40;19.33;;;5.15;;
18520;SDS011;9390;51.244;6.982;2023-05-24T15:12:13;19.30;;;5.20;;
18520;SDS011;9390;51.244;6.982;2023-05-24T15:14:45;16.27;;;4.80;;
18520;SDS011;9390;51.244;6.982;2023-05-24T15:17:17;14.43;;;4.73;;
18520;SDS011;9390;51.244;6.982;2023-05-24T15:19:50;13.10;;;4.40;;
18520;SDS011;9390;51.244;6.982;2023-05-24T15:22:22;15.30;;;5.28;;
18520;SDS011;9390;51.244;6.982;2023-05-24T15:24:55;14.30;;;4.13;;
18520;SDS011;9390;51.244;6.982;2023-05-24T15:27:28;16.83;;;4.25;;
18520;SDS011;9390;51.244;6.982;2023-05-24T15:30:00;12.52;;;4.95;;
18520;SDS011;9390;51.244;6.982;2023-05-24T15:32:32;17.63;;;4.90;;
18520;SDS011;9390;51.244;6.982;2023-05-24T15:35:04;13.07;;;5.45;;
18520;SDS011;9390;51.244;6.982;2023-05-24T15:37:37;20.23;;;4.80;;